Time;durP1;ratioP1;P1;durP2;ratioP2;P2;SDS_P1;SDS_P2;PMS_P1;PMS_P2;Temp;Humidity;BMP_temperature;BMP_pressure;BME280_temperature;BME280_humidity;BME280_pressure;Samples;Min_cycle;Max_cycle;Signal;HPM_P1;HPM_P2
2020/12/06 00:01:42;;;;;;;27.93;19.13;;;4.20;99.90;;;;;;5059074;28;20689;-61
2020/12/06 00:04:09;;;;;;;24.50;16.90;;;4.20;99.90;;;;;;5059254;28;20165;-61
2020/12/06 00:06:35;;;;;;;21.57;15.93;;;4.20;99.90;;;;;;5059843;28;20185;-61
2020/12/06 00:09:00;;;;;;;26.17;17.60;;;4.30;99.90;;;;;;5059388;28;20679;-61
2020/12/06 00:11:26;;;;;;;22.20;15.37;;;4.30;99.90;;;;;;5059400;28;20196;-61
2020/12/06 00:13:51;;;;;;;23.03;16.13;;;4.30;99.90;;;;;;5060076;28;20252;-62
2020/12/06 00:16:19;;;;;;;22.87;17.03;;;4.30;99.90;;;;;;5058979;28;20200;-62
2020/12/06 00:18:46;;;;;;;23.03;16.53;;;4.20;99.90;;;;;;5059499;28;20178;-62
2020/12/06 00:21:13;;;;;;;26.37;16.70;;;4.20;99.90;;;;;;5058013;28;20210;-62
2020/12/06 00:23:39;;;;;;;24.73;17.80;;;4.20;99.90;;;;;;5059246;28;20182;-62
2020/12/06 00:26:04;;;;;;;23.03;16.80;;;4.20;99.90;;;;;;5059338;28;20200;-61
2020/12/06 00:28:30;;;;;;;21.60;15.27;;;4.20;99.90;;;;;;5059797;28;20180;-60
2020/12/06 00:30:55;;;;;;;25.60;16.77;;;4.20;99.90;;;;;;5059005;28;20190;-61
2020/12/06 00:33:21;;;;;;;20.53;15.57;;;4.20;99.90;;;;;;5059841;28;20173;-61
2020/12/06 00:35:47;;;;;;;23.43;17.40;;;4.10;99.90;;;;;;5059861;28;20244;-60
2020/12/06 00:38:13;;;;;;;25.30;18.17;;;4.10;99.90;;;;;;5058411;28;20239;-61
2020/12/06 00:40:38;;;;;;;33.93;20.90;;;4.10;99.90;;;;;;5059444;28;20205;-62
2020/12/06 00:43:04;;;;;;;40.20;25.67;;;4.00;99.90;;;;;;5058921;28;20604;-62
2020/12/06 00:45:29;;;;;;;50.27;31.37;;;4.00;99.90;;;;;;5058987;28;20193;-63
2020/12/06 00:47:55;;;;;;;39.30;26.40;;;4.00;99.90;;;;;;5059254;28;20260;-63
2020/12/06 00:50:20;;;;;;;35.33;23.60;;;4.00;99.90;;;;;;5058092;28;20208;-61
2020/12/06 00:52:46;;;;;;;30.60;20.93;;;4.00;99.90;;;;;;5058411;28;20165;-63
2020/12/06 00:55:11;;;;;;;25.57;18.80;;;3.90;99.90;;;;;;5058138;28;20209;-63
2020/12/06 00:57:36;;;;;;;25.30;18.40;;;3.90;99.90;;;;;;5058837;28;20231;-62
2020/12/06 01:00:09;;;;;;;25.13;16.77;;;3.90;99.90;;;;;;5059391;28;20207;-63
2020/12/06 01:02:34;;;;;;;22.43;16.23;;;3.90;99.90;;;;;;5058798;28;20581;-62
2020/12/06 01:05:00;;;;;;;20.63;16.13;;;3.90;99.90;;;;;;5058673;28;20209;-63
2020/12/06 01:07:26;;;;;;;21.43;15.70;;;4.00;99.90;;;;;;5059369;28;20173;-63
2020/12/06 01:09:51;;;;;;;25.70;19.20;;;4.00;99.90;;;;;;5057984;28;20198;-62
2020/12/06 01:12:17;;;;;;;25.07;17.87;;;4.00;99.90;;;;;;5055916;28;20181;-63
2020/12/06 01:14:42;;;;;;;23.33;16.10;;;4.10;99.90;;;;;;5058798;28;20221;-64
2020/12/06 01:17:08;;;;;;;23.40;16.30;;;4.20;99.90;;;;;;5059003;28;20634;-62
2020/12/06 01:19:33;;;;;;;22.33;16.13;;;4.20;99.90;;;;;;5058710;28;20835;-61
2020/12/06 01:21:59;;;;;;;23.60;17.03;;;4.30;99.90;;;;;;5058838;28;20178;-62
2020/12/06 01:24:24;;;;;;;22.23;17.57;;;4.30;99.90;;;;;;5058865;28;20200;-62
2020/12/06 01:26:50;;;;;;;21.07;15.50;;;4.30;99.90;;;;;;5059118;28;20195;-62
2020/12/06 01:29:16;;;;;;;24.93;16.23;;;4.30;99.90;;;;;;5058289;28;20238;-62
2020/12/06 01:31:46;;;;;;;25.03;17.27;;;4.30;99.90;;;;;;5058686;28;20263;-62
2020/12/06 01:34:13;;;;;;;25.80;17.23;;;4.40;99.90;;;;;;5058821;28;20650;-62
2020/12/06 01:36:38;;;;;;;24.77;17.57;;;4.40;99.90;;;;;;5058844;28;20185;-62
2020/12/06 01:39:04;;;;;;;25.63;17.77;;;4.40;99.90;;;;;;5059020;28;20262;-62
2020/12/06 01:41:29;;;;;;;23.50;15.93;;;4.40;99.90;;;;;;5058348;28;20520;-64
2020/12/06 01:43:59;;;;;;;23.40;16.93;;;4.40;99.90;;;;;;5058538;28;20232;-62
2020/12/06 01:46:25;;;;;;;22.07;16.90;;;4.40;99.90;;;;;;5057942;28;20208;-62
2020/12/06 01:48:51;;;;;;;23.17;16.77;;;4.30;99.90;;;;;;5058557;28;20506;-62
2020/12/06 01:51:18;;;;;;;23.63;16.40;;;4.30;99.90;;;;;;5057486;28;20204;-61
2020/12/06 01:53:47;;;;;;;24.10;16.50;;;4.20;99.90;;;;;;5058462;28;20714;-62
2020/12/06 01:56:12;;;;;;;24.40;16.53;;;4.10;99.90;;;;;;5058630;28;20726;-62
2020/12/06 01:58:38;;;;;;;23.30;17.20;;;4.10;99.90;;;;;;5058461;28;20182;-62
2020/12/06 02:01:04;;;;;;;23.53;15.90;;;4.10;99.90;;;;;;5058556;28;20283;-61
2020/12/06 02:03:30;;;;;;;26.53;18.03;;;4.10;99.90;;;;;;5070490;28;20385;-61
2020/12/06 02:05:56;;;;;;;27.93;18.73;;;4.10;99.90;;;;;;5070974;28;20231;-61
2020/12/06 02:08:21;;;;;;;26.37;17.07;;;4.20;99.90;;;;;;5071350;28;20372;-60
2020/12/06 02:10:47;;;;;;;24.87;17.20;;;4.20;99.90;;;;;;5072690;28;20546;-62
2020/12/06 02:13:12;;;;;;;22.77;17.47;;;4.30;99.90;;;;;;5072991;28;20253;-61
2020/12/06 02:15:38;;;;;;;27.00;16.17;;;4.30;99.90;;;;;;5071302;28;20177;-62
2020/12/06 02:18:03;;;;;;;24.07;15.50;;;4.40;99.90;;;;;;5070690;28;20607;-62
2020/12/06 02:20:29;;;;;;;22.90;16.37;;;4.40;99.90;;;;;;5066278;22;20219;-61
2020/12/06 02:22:54;;;;;;;24.80;16.50;;;4.40;99.90;;;;;;5010701;28;20636;-61
2020/12/06 02:25:20;;;;;;;24.37;17.73;;;4.50;99.90;;;;;;5010311;28;20194;-61
2020/12/06 02:27:45;;;;;;;24.83;16.70;;;4.50;99.90;;;;;;5010508;28;20204;-63
2020/12/06 02:30:12;;;;;;;22.93;16.97;;;4.60;99.90;;;;;;5010323;28;20666;-64
2020/12/06 02:32:37;;;;;;;24.30;17.33;;;4.60;99.90;;;;;;5008794;28;20194;-61
2020/12/06 02:35:04;;;;;;;24.53;18.17;;;4.60;99.90;;;;;;5018409;28;20661;-63
2020/12/06 02:37:29;;;;;;;26.03;17.37;;;4.70;99.90;;;;;;5018688;28;20232;-64
2020/12/06 02:39:55;;;;;;;22.90;16.33;;;4.70;99.90;;;;;;5013641;28;20713;-61
2020/12/06 13:37:14;;;;;;;24.43;15.27;;;7.60;99.90;;;;;;5086793;27;21028;-74
2020/12/06 13:39:40;;;;;;;23.40;17.40;;;7.60;99.90;;;;;;5081751;28;20281;-75
2020/12/06 13:42:05;;;;;;;22.87;17.30;;;7.50;99.90;;;;;;5084150;28;20283;-76
2020/12/06 13:44:31;;;;;;;23.13;15.50;;;7.50;99.90;;;;;;5090272;28;20671;-77
2020/12/06 13:46:57;;;;;;;27.37;17.07;;;7.50;99.90;;;;;;5094489;28;20176;-71
2020/12/06 13:49:22;;;;;;;25.50;17.85;;;7.50;99.90;;;;;;5096133;22;20271;-70
2020/12/06 13:51:50;;;;;;;22.37;16.13;;;7.40;99.90;;;;;;5044497;28;20202;-70
2020/12/06 13:54:15;;;;;;;24.80;16.23;;;7.40;99.90;;;;;;5047751;28;20178;-69
2020/12/06 13:56:41;;;;;;;23.70;16.60;;;7.40;99.90;;;;;;5048572;28;20206;-71
2020/12/06 13:59:06;;;;;;;26.50;16.33;;;7.40;99.90;;;;;;5055751;28;20183;-70
2020/12/06 14:01:32;;;;;;;25.53;17.63;;;7.40;99.90;;;;;;5045371;28;20276;-70
2020/12/06 14:03:58;;;;;;;27.30;17.23;;;7.40;99.90;;;;;;5047762;28;20213;-69
2020/12/06 14:06:25;;;;;;;24.03;17.27;;;7.40;99.90;;;;;;5047545;28;20189;-69
2020/12/06 14:08:51;;;;;;;25.47;17.60;;;7.40;99.90;;;;;;5047626;28;20238;-69
2020/12/06 14:11:16;;;;;;;25.37;17.73;;;7.40;99.90;;;;;;5047097;28;20198;-69
2020/12/06 14:13:42;;;;;;;23.77;17.10;;;7.40;99.90;;;;;;5045252;28;20589;-69
2020/12/06 14:16:07;;;;;;;25.33;16.83;;;7.40;99.90;;;;;;5046294;28;20236;-69
2020/12/06 14:18:33;;;;;;;33.50;19.17;;;7.40;99.90;;;;;;5050179;28;20544;-69
2020/12/06 14:20:59;;;;;;;25.40;17.27;;;7.40;99.90;;;;;;5054608;28;20197;-68
2020/12/06 14:23:25;;;;;;;23.33;16.40;;;7.40;99.90;;;;;;5053127;28;20660;-68
2020/12/06 14:25:50;;;;;;;24.63;16.57;;;7.40;99.90;;;;;;5044767;28;20194;-69
2020/12/06 14:28:15;;;;;;;27.53;18.40;;;7.40;99.90;;;;;;5050927;28;20609;-70
2020/12/06 14:30:41;;;;;;;23.90;16.43;;;7.40;99.90;;;;;;5044657;28;20197;-70
2020/12/06 14:33:07;;;;;;;26.33;17.67;;;7.40;99.90;;;;;;5046841;28;20186;-71
2020/12/06 14:35:32;;;;;;;20.83;15.23;;;7.40;99.90;;;;;;5028843;28;20577;-71
2020/12/06 14:37:58;;;;;;;23.00;16.43;;;7.40;99.90;;;;;;5030117;28;20599;-70
2020/12/06 14:40:23;;;;;;;25.17;16.57;;;7.40;99.90;;;;;;5045345;28;20206;-69
2020/12/06 14:42:49;;;;;;;20.80;15.50;;;7.40;99.90;;;;;;5045329;28;20174;-69
2020/12/06 14:45:14;;;;;;;25.43;16.83;;;7.40;99.90;;;;;;5045707;28;20213;-69
2020/12/06 14:47:40;;;;;;;22.87;15.20;;;7.50;99.90;;;;;;5038326;28;20650;-69
2020/12/06 14:50:05;;;;;;;22.87;17.00;;;7.50;99.90;;;;;;5034186;28;20236;-70
2020/12/06 14:52:31;;;;;;;23.10;16.97;;;7.50;99.90;;;;;;5051652;28;20170;-69
2020/12/06 14:54:56;;;;;;;21.60;16.73;;;7.50;99.90;;;;;;5050369;28;20182;-70
2020/12/06 14:57:22;;;;;;;25.50;16.67;;;7.50;99.90;;;;;;5051591;28;20173;-70
2020/12/06 14:59:47;;;;;;;20.53;16.20;;;7.50;99.90;;;;;;5053671;28;20201;-70
2020/12/06 15:02:13;;;;;;;22.97;16.67;;;7.50;99.90;;;;;;5049259;28;20324;-70
2020/12/06 15:04:38;;;;;;;24.37;16.40;;;7.50;99.90;;;;;;5053743;28;20646;-70
2020/12/06 15:07:04;;;;;;;21.43;15.40;;;7.50;99.90;;;;;;5050387;28;20523;-69
2020/12/06 15:09:29;;;;;;;19.87;14.87;;;7.50;99.90;;;;;;5051291;28;20274;-69
2020/12/06 15:11:55;;;;;;;22.10;15.17;;;7.60;99.90;;;;;;5050234;28;20269;-68
2020/12/06 15:14:20;;;;;;;21.23;15.67;;;7.60;99.90;;;;;;5049823;28;20181;-68
2020/12/06 15:16:46;;;;;;;22.13;14.43;;;7.60;99.90;;;;;;5049364;28;20292;-70
2020/12/06 15:19:11;;;;;;;22.00;16.13;;;7.60;99.90;;;;;;5062802;28;20253;-70
2020/12/06 15:21:37;;;;;;;20.47;15.00;;;7.60;99.90;;;;;;5073970;28;20199;-69
2020/12/06 15:24:02;;;;;;;17.93;14.77;;;7.70;99.90;;;;;;5073259;28;20265;-68
2020/12/06 15:26:28;;;;;;;21.27;14.93;;;7.70;99.90;;;;;;5076707;28;20162;-69
2020/12/06 15:28:53;;;;;;;23.63;15.37;;;7.70;99.90;;;;;;5072437;28;20177;-73
2020/12/06 15:31:19;;;;;;;20.37;13.90;;;7.80;99.90;;;;;;5049791;28;20207;-69
2020/12/06 15:33:46;;;;;;;21.93;15.63;;;7.70;99.90;;;;;;5049560;28;20187;-70
2020/12/06 15:36:13;;;;;;;18.93;14.10;;;7.70;99.90;;;;;;5050548;28;20201;-70
2020/12/06 15:38:39;;;;;;;19.77;14.67;;;7.80;99.90;;;;;;5048925;28;20190;-69
2020/12/06 15:41:14;;;;;;;19.93;14.10;;;7.70;99.90;;;;;;5032479;28;20189;-72
2020/12/06 15:43:40;;;;;;;18.70;14.27;;;7.70;99.90;;;;;;5049735;28;20544;-68
2020/12/06 15:46:07;;;;;;;19.73;14.63;;;7.70;99.90;;;;;;5050157;28;20634;-69
2020/12/06 15:48:35;;;;;;;19.90;14.77;;;7.70;99.90;;;;;;5050840;28;20205;-69
2020/12/06 15:51:05;;;;;;;19.23;14.53;;;7.70;99.90;;;;;;5049257;28;20221;-68
2020/12/06 15:53:32;;;;;;;20.47;14.93;;;7.60;99.90;;;;;;5049969;28;20203;-69
2020/12/06 15:55:57;;;;;;;21.60;14.40;;;7.70;99.90;;;;;;5050131;28;20195;-69
2020/12/06 15:58:23;;;;;;;18.43;13.23;;;7.70;99.90;;;;;;5049758;28;20598;-69
2020/12/06 16:00:49;;;;;;;18.27;13.27;;;7.80;99.90;;;;;;5048017;28;20366;-68
2020/12/06 16:03:14;;;;;;;14.83;11.40;;;7.80;99.90;;;;;;5031742;28;20574;-69
2020/12/06 16:05:39;;;;;;;19.33;13.93;;;7.80;99.90;;;;;;5049076;28;20181;-62
2020/12/06 16:08:05;;;;;;;17.03;13.20;;;7.90;99.90;;;;;;5049032;28;20177;-62
2020/12/06 16:10:31;;;;;;;18.50;13.20;;;7.90;99.90;;;;;;5048180;28;20202;-63
2020/12/06 16:12:57;;;;;;;19.80;14.40;;;8.00;99.90;;;;;;5049824;28;20189;-62
2020/12/06 16:15:22;;;;;;;12.93;8.10;;;8.00;99.90;;;;;;5048871;28;20200;-64
2020/12/06 16:17:49;;;;;;;17.80;13.57;;;8.10;99.90;;;;;;5047742;28;20186;-63
2020/12/06 16:20:14;;;;;;;17.37;12.50;;;8.10;99.90;;;;;;5047147;28;20568;-61
2020/12/06 16:22:40;;;;;;;17.37;12.90;;;8.10;99.90;;;;;;5048789;28;20177;-62
2020/12/06 16:25:06;;;;;;;15.97;12.83;;;8.20;99.90;;;;;;5047764;28;20170;-61
2020/12/06 16:27:31;;;;;;;16.53;12.97;;;8.20;99.90;;;;;;5048419;28;20209;-62
2020/12/06 16:29:56;;;;;;;18.03;13.00;;;8.20;99.90;;;;;;5048041;28;20200;-62
2020/12/06 16:32:22;;;;;;;17.93;13.57;;;8.20;99.90;;;;;;5048971;28;20244;-63
2020/12/06 16:34:47;;;;;;;19.13;13.40;;;8.20;99.90;;;;;;5043584;28;20206;-62
2020/12/06 16:37:13;;;;;;;17.53;12.17;;;8.20;99.90;;;;;;5045842;28;20208;-62
2020/12/06 16:39:38;;;;;;;13.93;8.90;;;8.20;99.90;;;;;;5048386;28;20193;-63
2020/12/06 16:42:04;;;;;;;18.10;13.10;;;8.30;99.90;;;;;;5048590;28;20582;-63
2020/12/06 16:44:29;;;;;;;18.33;13.03;;;8.30;99.90;;;;;;5052537;28;20292;-70
2020/12/06 16:46:56;;;;;;;16.23;12.17;;;8.30;99.90;;;;;;5048962;28;20260;-70
2020/12/06 16:49:23;;;;;;;15.83;11.30;;;8.30;99.90;;;;;;5046611;28;20196;-62
2020/12/06 16:51:49;;;;;;;17.00;12.97;;;8.30;99.90;;;;;;5045335;28;20178;-61
2020/12/06 16:54:14;;;;;;;15.90;12.23;;;8.30;99.90;;;;;;5046941;28;20188;-62
2020/12/06 16:56:40;;;;;;;11.97;8.43;;;8.30;99.90;;;;;;5048522;28;20202;-63
2020/12/06 16:59:05;;;;;;;16.90;12.10;;;8.20;99.90;;;;;;5048834;28;20269;-64
2020/12/06 17:01:31;;;;;;;16.43;12.53;;;8.20;99.90;;;;;;5048758;28;20734;-64
2020/12/06 17:03:56;;;;;;;13.57;9.07;;;8.20;99.90;;;;;;5047543;28;20235;-63
2020/12/06 17:06:22;;;;;;;19.43;13.40;;;8.20;99.90;;;;;;5046930;28;20185;-63
2020/12/06 17:08:48;;;;;;;15.33;11.80;;;8.20;99.90;;;;;;5048228;28;20264;-63
2020/12/06 17:11:18;;;;;;;16.87;13.30;;;8.20;99.90;;;;;;5047208;28;20712;-64
2020/12/06 17:13:44;;;;;;;17.03;12.77;;;8.20;99.90;;;;;;5049019;28;20182;-64
2020/12/06 17:16:11;;;;;;;17.30;13.07;;;8.20;99.90;;;;;;5047306;28;20740;-63
2020/12/06 17:18:36;;;;;;;18.67;14.33;;;8.10;99.90;;;;;;5047303;28;20550;-64
2020/12/06 17:21:02;;;;;;;14.00;9.87;;;8.10;99.90;;;;;;5047274;28;20201;-63
2020/12/06 17:23:27;;;;;;;16.10;12.67;;;8.10;99.90;;;;;;5047704;28;20170;-62
2020/12/06 17:25:53;;;;;;;17.33;13.03;;;8.10;99.90;;;;;;5046618;28;20650;-62
2020/12/06 17:28:18;;;;;;;17.43;13.60;;;8.10;99.90;;;;;;5047097;28;20201;-70
2020/12/06 17:30:44;;;;;;;15.70;11.37;;;8.10;99.90;;;;;;5051287;28;20197;-69
2020/12/06 17:33:09;;;;;;;11.97;8.33;;;8.10;99.90;;;;;;5039104;28;20268;-67
2020/12/06 17:35:37;;;;;;;19.30;12.73;;;8.00;99.90;;;;;;5043066;28;20202;-70
2020/12/06 17:38:03;;;;;;;19.70;13.53;;;8.00;99.90;;;;;;5041971;28;20818;-70
2020/12/06 17:40:28;;;;;;;17.50;12.70;;;8.00;99.90;;;;;;5030607;28;20252;-70
2020/12/06 17:42:54;;;;;;;17.50;13.33;;;8.00;99.90;;;;;;5030603;28;20179;-71
2020/12/06 17:45:19;;;;;;;19.73;14.87;;;8.00;99.90;;;;;;5030628;28;20170;-71
2020/12/06 17:47:45;;;;;;;20.03;15.10;;;7.90;99.90;;;;;;5030734;28;20166;-71
2020/12/06 17:50:10;;;;;;;19.47;14.00;;;7.80;99.90;;;;;;5030755;28;20264;-71
2020/12/06 17:52:36;;;;;;;14.87;11.50;;;7.80;99.90;;;;;;5030629;28;20216;-71
2020/12/06 17:55:02;;;;;;;20.47;15.00;;;7.80;99.90;;;;;;5030961;28;20592;-71
2020/12/06 17:57:27;;;;;;;12.10;8.80;;;7.70;99.90;;;;;;5032600;28;20658;-70
2020/12/06 17:59:53;;;;;;;18.60;14.47;;;7.70;99.90;;;;;;5030494;28;20446;-70
2020/12/06 18:02:18;;;;;;;15.70;11.10;;;7.70;99.90;;;;;;5030572;28;20202;-69
2020/12/06 18:04:44;;;;;;;17.63;11.10;;;7.70;99.90;;;;;;5030681;28;20202;-69
2020/12/06 18:07:09;;;;;;;18.33;13.83;;;7.70;99.90;;;;;;5031505;28;20239;-70
2020/12/06 18:09:35;;;;;;;14.50;9.93;;;7.60;99.90;;;;;;5042580;28;20182;-68
2020/12/06 18:12:00;;;;;;;22.33;14.57;;;7.60;99.90;;;;;;5059544;28;20189;-70
2020/12/06 18:14:26;;;;;;;19.43;14.37;;;7.60;99.90;;;;;;5040398;28;20211;-70
2020/12/06 18:16:53;;;;;;;14.33;11.20;;;7.60;99.90;;;;;;5048400;28;20293;-71
2020/12/06 18:19:19;;;;;;;17.27;11.83;;;7.70;99.90;;;;;;5048832;28;20273;-71
2020/12/06 18:21:45;;;;;;;15.47;12.60;;;7.70;99.90;;;;;;5050371;28;20170;-70
2020/12/06 18:24:11;;;;;;;19.67;13.43;;;7.70;99.90;;;;;;5036896;28;20593;-70
2020/12/06 18:26:38;;;;;;;20.70;14.13;;;7.70;99.90;;;;;;5053948;28;20664;-71
2020/12/06 18:29:05;;;;;;;18.60;12.87;;;7.70;99.90;;;;;;5053855;28;20630;-71
2020/12/06 18:31:31;;;;;;;16.63;12.47;;;7.80;99.90;;;;;;5053818;28;20236;-71
2020/12/06 18:33:58;;;;;;;17.43;11.57;;;7.90;99.90;;;;;;5053773;28;20265;-70
2020/12/06 18:36:26;;;;;;;18.73;11.80;;;7.80;99.90;;;;;;5054608;28;20251;-72
2020/12/06 18:38:54;;;;;;;20.13;14.17;;;7.90;99.90;;;;;;5055179;28;20170;-70
2020/12/06 18:41:20;;;;;;;21.43;15.03;;;8.00;99.90;;;;;;5074808;28;20244;-70
2020/12/06 18:43:48;;;;;;;21.93;14.80;;;7.90;99.90;;;;;;5075364;28;20176;-71
2020/12/06 18:46:15;;;;;;;17.00;11.83;;;7.90;99.90;;;;;;5078582;28;20168;-71
2020/12/06 18:48:41;;;;;;;20.40;13.87;;;7.90;99.90;;;;;;5078838;28;20188;-70
2020/12/06 18:51:10;;;;;;;20.70;14.80;;;7.80;99.90;;;;;;5063437;28;20206;-69
2020/12/06 18:53:35;;;;;;;24.50;16.10;;;7.80;99.90;;;;;;5053416;28;20228;-69
2020/12/06 18:56:01;;;;;;;19.67;15.53;;;7.80;99.90;;;;;;5053914;28;20206;-71
2020/12/06 18:58:26;;;;;;;21.90;14.57;;;7.80;99.90;;;;;;5054197;28;20208;-71
2020/12/06 19:00:52;;;;;;;22.67;15.73;;;7.70;99.90;;;;;;5054363;28;20189;-70
2020/12/06 19:03:18;;;;;;;21.27;15.43;;;7.70;99.90;;;;;;5055265;28;20170;-70
2020/12/06 19:05:45;;;;;;;23.33;16.80;;;7.70;99.90;;;;;;5056354;28;20181;-72
2020/12/06 19:08:11;;;;;;;26.17;17.30;;;7.70;99.90;;;;;;5056209;28;20265;-71
2020/12/06 19:10:37;;;;;;;18.20;12.70;;;7.70;99.90;;;;;;5053753;28;20202;-71
2020/12/06 19:13:06;;;;;;;23.47;14.87;;;7.60;99.90;;;;;;5055497;28;20190;-71
2020/12/06 19:15:32;;;;;;;21.17;15.30;;;7.70;99.90;;;;;;5037596;28;20573;-70
2020/12/06 19:17:58;;;;;;;25.37;14.77;;;7.70;99.90;;;;;;5053967;28;20180;-71
2020/12/06 19:20:23;;;;;;;23.70;15.27;;;7.70;99.90;;;;;;5053045;28;20269;-71
2020/12/06 19:22:50;;;;;;;23.47;15.73;;;7.70;99.90;;;;;;5036287;28;20177;-70
2020/12/06 19:25:19;;;;;;;20.67;15.07;;;7.70;99.90;;;;;;5053748;28;20177;-70
2020/12/06 19:27:45;;;;;;;20.43;12.83;;;7.60;99.90;;;;;;5053696;28;20178;-70
2020/12/06 19:30:12;;;;;;;24.20;17.13;;;7.60;99.90;;;;;;5053614;28;20572;-71
2020/12/06 19:32:39;;;;;;;23.90;16.60;;;7.70;99.90;;;;;;5052661;28;20201;-70
2020/12/06 19:35:06;;;;;;;26.33;16.77;;;7.60;99.90;;;;;;5052965;28;20170;-69
2020/12/06 19:37:32;;;;;;;21.23;14.57;;;7.60;99.90;;;;;;5052289;28;20173;-70
2020/12/06 19:39:57;;;;;;;22.80;16.00;;;7.70;99.90;;;;;;5052773;28;20194;-69
2020/12/06 19:42:23;;;;;;;24.07;17.23;;;7.60;99.90;;;;;;5052153;28;20180;-70
2020/12/06 19:44:48;;;;;;;22.17;16.60;;;7.60;99.90;;;;;;5053789;28;20227;-70
2020/12/06 19:47:14;;;;;;;25.57;17.70;;;7.60;99.90;;;;;;5053324;28;20188;-70
2020/12/06 19:49:40;;;;;;;25.23;17.13;;;7.50;99.90;;;;;;5051911;28;20264;-68
2020/12/06 19:52:07;;;;;;;23.57;16.97;;;7.50;99.90;;;;;;5084118;22;20240;-76
2020/12/06 19:54:33;;;;;;;20.57;15.53;;;7.50;99.90;;;;;;5047152;28;20188;-70
2020/12/06 19:56:59;;;;;;;25.90;17.77;;;7.50;99.90;;;;;;5052292;28;20539;-64
2020/12/06 19:59:24;;;;;;;22.33;16.63;;;7.50;99.90;;;;;;5050481;28;20186;-60
2020/12/06 20:01:50;;;;;;;25.20;16.17;;;7.50;99.90;;;;;;5051478;28;20549;-60
2020/12/06 20:04:15;;;;;;;22.77;16.43;;;7.50;99.90;;;;;;5051138;28;20234;-62
2020/12/06 20:06:41;;;;;;;24.27;16.07;;;7.50;99.90;;;;;;5051114;28;20539;-63
2020/12/06 20:09:07;;;;;;;23.73;17.27;;;7.60;99.90;;;;;;5051620;28;20261;-61
2020/12/06 20:11:33;;;;;;;19.00;11.60;;;7.50;99.90;;;;;;5032833;28;20206;-67
2020/12/06 20:13:58;;;;;;;23.07;15.83;;;7.50;99.90;;;;;;5051287;28;20247;-63
2020/12/06 20:16:24;;;;;;;24.63;17.23;;;7.50;99.90;;;;;;5050403;28;20197;-64
2020/12/06 20:18:49;;;;;;;21.70;15.60;;;7.60;99.90;;;;;;5051681;28;20170;-60
2020/12/06 20:21:18;;;;;;;24.93;16.93;;;7.50;99.90;;;;;;5050795;28;20324;-63
2020/12/06 20:23:44;;;;;;;22.63;16.70;;;7.60;99.90;;;;;;5048777;28;20210;-70
2020/12/06 20:26:10;;;;;;;23.83;17.80;;;7.50;99.90;;;;;;5050423;28;20264;-65
2020/12/06 20:31:08;;;;;;;25.77;17.03;;;7.50;99.90;;;;;;5051635;28;20604;-68
2020/12/06 20:33:33;;;;;;;23.63;16.33;;;7.40;99.90;;;;;;5052041;28;20174;-72
2020/12/06 20:35:59;;;;;;;20.47;14.27;;;7.40;99.90;;;;;;5051554;28;20658;-73
2020/12/06 20:38:24;;;;;;;28.03;18.57;;;7.40;99.90;;;;;;5051346;28;20173;-72
2020/12/06 20:40:50;;;;;;;19.20;13.13;;;7.40;99.90;;;;;;5050039;28;20201;-60
2020/12/06 20:43:15;;;;;;;20.80;15.50;;;7.30;99.90;;;;;;5035624;28;20636;-61
2020/12/06 20:45:41;;;;;;;25.50;18.13;;;7.30;99.90;;;;;;5046884;28;20174;-63
2020/12/06 20:48:08;;;;;;;25.03;18.53;;;7.30;99.90;;;;;;5040811;28;20182;-61
2020/12/06 20:50:34;;;;;;;24.93;17.93;;;7.40;99.90;;;;;;5050355;28;20205;-62
2020/12/06 20:52:59;;;;;;;23.77;16.07;;;7.30;99.90;;;;;;5050016;28;20676;-72
2020/12/06 20:55:25;;;;;;;22.17;14.30;;;7.30;99.90;;;;;;5048937;28;20197;-72
2020/12/06 20:57:50;;;;;;;26.17;17.83;;;7.30;99.90;;;;;;5050374;28;20178;-73
2020/12/06 21:00:19;;;;;;;24.10;17.47;;;7.30;99.90;;;;;;5049824;28;20207;-72
2020/12/06 21:02:44;;;;;;;24.60;17.20;;;7.30;99.90;;;;;;5050737;28;20170;-71
2020/12/06 21:05:10;;;;;;;24.53;17.20;;;7.20;99.90;;;;;;5036018;28;20172;-73
2020/12/06 21:07:36;;;;;;;15.10;11.10;;;7.20;99.90;;;;;;5051611;28;20185;-74
2020/12/06 21:10:02;;;;;;;22.60;15.80;;;7.20;99.90;;;;;;5051328;28;20561;-73
2020/12/06 21:12:28;;;;;;;25.37;16.87;;;7.20;99.90;;;;;;5049663;28;20185;-73
2020/12/06 21:14:54;;;;;;;22.87;16.60;;;7.20;99.90;;;;;;5051130;28;20173;-73
2020/12/06 21:17:19;;;;;;;18.27;12.80;;;7.20;99.90;;;;;;5050404;28;20201;-73
2020/12/06 21:19:44;;;;;;;21.60;16.23;;;7.20;99.90;;;;;;5049668;28;20257;-72
2020/12/06 21:22:10;;;;;;;26.70;17.83;;;7.20;99.90;;;;;;5050796;28;20528;-71
2020/12/06 21:24:36;;;;;;;24.33;17.67;;;7.10;99.90;;;;;;5049347;28;20247;-72
2020/12/06 21:27:05;;;;;;;24.13;15.33;;;7.10;99.90;;;;;;5031786;28;20177;-72
2020/12/06 21:29:31;;;;;;;23.63;17.50;;;7.10;99.90;;;;;;5042253;28;20177;-71
2020/12/06 21:31:56;;;;;;;24.30;16.17;;;7.10;99.90;;;;;;5049858;28;20283;-71
2020/12/06 21:34:22;;;;;;;21.57;15.90;;;7.00;99.90;;;;;;5048974;28;20232;-71
2020/12/06 21:36:48;;;;;;;24.90;17.13;;;7.00;99.90;;;;;;5050207;28;20371;-71
2020/12/06 21:39:14;;;;;;;21.13;13.70;;;7.00;99.90;;;;;;5050283;28;20252;-71
2020/12/06 21:41:40;;;;;;;22.83;16.57;;;7.00;99.90;;;;;;5050143;28;20193;-71
2020/12/06 21:44:07;;;;;;;20.00;13.57;;;7.00;99.90;;;;;;5050878;28;20630;-70
2020/12/06 21:46:32;;;;;;;18.27;13.93;;;7.00;99.90;;;;;;5050086;28;20757;-71
2020/12/06 21:48:58;;;;;;;21.03;14.23;;;7.00;99.90;;;;;;5050182;28;20464;-71
2020/12/06 21:51:30;;;;;;;22.20;15.23;;;7.00;99.90;;;;;;5048896;28;20270;-72
2020/12/06 21:53:55;;;;;;;21.27;16.13;;;7.00;99.90;;;;;;5050220;28;20176;-72
2020/12/06 21:56:21;;;;;;;19.50;13.13;;;7.00;99.90;;;;;;5047012;28;20221;-72
2020/12/06 21:58:46;;;;;;;22.53;15.80;;;6.90;99.90;;;;;;5051731;28;20219;-72
2020/12/06 22:01:12;;;;;;;21.57;14.37;;;6.90;99.90;;;;;;5050322;28;20202;-72
2020/12/06 22:03:37;;;;;;;22.03;15.60;;;6.90;99.90;;;;;;5050757;28;20268;-62
2020/12/06 22:06:03;;;;;;;23.37;16.47;;;6.90;99.90;;;;;;5051968;28;20182;-61
2020/12/06 22:08:28;;;;;;;22.03;16.27;;;6.90;99.90;;;;;;5051415;28;20623;-62
2020/12/06 22:10:54;;;;;;;20.93;14.80;;;6.90;99.90;;;;;;5048311;28;21837;-63
2020/12/06 22:13:20;;;;;;;23.97;15.77;;;6.90;99.90;;;;;;5050975;28;20531;-62
2020/12/06 22:15:46;;;;;;;25.43;17.10;;;6.90;99.90;;;;;;5051504;28;20201;-60
2020/12/06 22:18:11;;;;;;;21.77;15.03;;;6.90;99.90;;;;;;5051063;28;20206;-60
2020/12/06 22:20:37;;;;;;;22.87;16.07;;;6.90;99.90;;;;;;5050849;28;20249;-62
2020/12/06 22:23:02;;;;;;;21.90;14.43;;;6.90;99.90;;;;;;5050804;28;20192;-61
2020/12/06 22:25:28;;;;;;;24.07;15.50;;;6.90;99.90;;;;;;5050926;28;20247;-61
2020/12/06 22:27:53;;;;;;;24.43;15.73;;;6.90;99.90;;;;;;5048649;28;20190;-61
2020/12/06 22:30:19;;;;;;;22.40;16.27;;;6.90;99.90;;;;;;5051564;28;20194;-60
2020/12/06 22:32:44;;;;;;;21.07;14.20;;;6.90;99.90;;;;;;5048857;28;20182;-60
2020/12/06 22:35:11;;;;;;;22.50;16.13;;;6.90;99.90;;;;;;5051537;28;20257;-59
2020/12/06 22:37:36;;;;;;;21.63;16.27;;;6.90;99.90;;;;;;5051112;28;20190;-60
2020/12/06 22:40:03;;;;;;;20.97;12.57;;;6.90;99.90;;;;;;5051579;28;20210;-60
2020/12/06 22:42:32;;;;;;;21.27;17.20;;;7.00;99.90;;;;;;5049929;28;20615;-59
2020/12/06 22:44:57;;;;;;;21.03;15.83;;;7.00;99.90;;;;;;5051362;28;20201;-59
2020/12/06 22:47:23;;;;;;;22.97;14.03;;;7.00;99.90;;;;;;5050497;28;20224;-59
2020/12/06 22:49:48;;;;;;;22.00;15.90;;;7.00;99.90;;;;;;5032585;28;20182;-61
2020/12/06 22:52:14;;;;;;;24.13;16.10;;;7.00;99.90;;;;;;5049213;28;20177;-60
2020/12/06 22:54:39;;;;;;;23.23;14.80;;;6.90;99.90;;;;;;5051216;28;20174;-61
2020/12/06 22:57:05;;;;;;;19.63;13.07;;;7.00;99.90;;;;;;5051178;28;20197;-61
2020/12/06 22:59:31;;;;;;;19.43;12.80;;;7.00;99.90;;;;;;5051143;28;20170;-60
2020/12/06 23:01:56;;;;;;;16.60;10.23;;;7.00;99.90;;;;;;5049595;28;20557;-60
2020/12/06 23:04:22;;;;;;;21.73;15.80;;;7.10;99.90;;;;;;5050051;28;20186;-61
2020/12/06 23:06:47;;;;;;;21.23;15.37;;;7.10;99.90;;;;;;5051003;28;20204;-60
2020/12/06 23:09:13;;;;;;;23.73;16.63;;;7.10;99.90;;;;;;5050439;28;20615;-61
2020/12/06 23:11:38;;;;;;;20.03;14.43;;;7.10;99.90;;;;;;5047646;28;20288;-60
2020/12/06 23:14:05;;;;;;;18.73;13.97;;;7.10;99.90;;;;;;5049828;28;20285;-59
2020/12/06 23:16:30;;;;;;;20.00;13.63;;;7.10;99.90;;;;;;5050144;28;20297;-59
2020/12/06 23:18:56;;;;;;;18.57;13.20;;;7.10;99.90;;;;;;5050701;28;20252;-60
2020/12/06 23:21:22;;;;;;;19.83;13.33;;;7.20;99.90;;;;;;5048989;28;20208;-60
2020/12/06 23:23:47;;;;;;;13.60;9.27;;;7.20;99.90;;;;;;5050396;28;20204;-60
2020/12/06 23:26:14;;;;;;;18.27;13.53;;;7.30;99.90;;;;;;5050636;28;20170;-60
2020/12/06 23:28:40;;;;;;;22.70;14.83;;;7.40;99.90;;;;;;5050413;28;20194;-60